createdAt,value
2022-07-26T00:02:25.640Z,4.90
2022-07-26T00:04:52.160Z,5.03
2022-07-26T00:07:18.664Z,4.40
2022-07-26T00:09:48.355Z,4.80
2022-07-26T00:12:15.293Z,4.67
2022-07-26T00:14:43.461Z,5.37
2022-07-26T00:17:11.368Z,4.77
2022-07-26T00:19:37.884Z,5.00
2022-07-26T00:22:22.741Z,5.03
2022-07-26T00:24:49.269Z,4.80
2022-07-26T00:27:15.768Z,4.70
2022-07-26T00:29:42.325Z,5.60
2022-07-26T00:32:08.887Z,4.23
2022-07-26T00:34:35.401Z,4.20
2022-07-26T00:37:02.005Z,4.73
2022-07-26T00:39:29.037Z,4.37
2022-07-26T00:41:55.585Z,4.03
2022-07-26T00:44:22.233Z,4.80
2022-07-26T00:46:48.739Z,4.23
2022-07-26T00:49:15.372Z,4.73
2022-07-26T00:51:42.095Z,4.30
2022-07-26T00:54:12.952Z,5.07
2022-07-26T00:56:39.769Z,5.60
2022-07-26T00:59:06.615Z,5.10
2022-07-26T01:01:33.457Z,5.77
2022-07-26T01:04:00.035Z,5.30
2022-07-26T01:06:27.525Z,5.50
2022-07-26T01:08:54.494Z,5.80
2022-07-26T01:11:21.046Z,5.70
2022-07-26T01:13:48.640Z,6.23
2022-07-26T01:16:15.251Z,6.13
2022-07-26T01:18:41.970Z,6.13
2022-07-26T01:21:13.169Z,6.37
2022-07-26T01:23:41.273Z,5.90
2022-07-26T01:26:07.912Z,6.13
2022-07-26T01:28:38.802Z,6.00
2022-07-26T01:31:06.277Z,5.57
2022-07-26T01:33:33.277Z,6.33
2022-07-26T01:35:59.922Z,6.43
2022-07-26T01:38:26.707Z,5.87
2022-07-26T01:40:53.799Z,6.70
2022-07-26T01:43:20.320Z,5.90
2022-07-26T01:45:47.002Z,5.83
2022-07-26T01:48:13.682Z,6.00
2022-07-26T01:50:40.194Z,6.03
2022-07-26T01:53:08.786Z,5.15
2022-07-26T01:55:35.786Z,5.50
2022-07-26T01:58:02.729Z,5.30
2022-07-26T02:00:29.266Z,5.37
2022-07-26T02:02:55.877Z,4.73
2022-07-26T02:05:22.541Z,4.50
2022-07-26T02:07:49.269Z,5.33
2022-07-26T02:10:17.132Z,5.20
2022-07-26T02:12:44.021Z,4.27
2022-07-26T02:15:11.807Z,4.43
2022-07-26T02:17:38.376Z,4.73
2022-07-26T02:20:05.344Z,4.70
2022-07-26T02:22:31.853Z,5.40
2022-07-26T02:25:02.933Z,4.77
2022-07-26T02:27:31.452Z,4.93
2022-07-26T02:29:57.960Z,4.30
2022-07-26T02:32:24.463Z,5.07
2022-07-26T02:34:50.969Z,6.03
2022-07-26T02:37:17.504Z,5.77
2022-07-26T02:39:43.998Z,5.77
2022-07-26T02:42:10.545Z,6.03
2022-07-26T02:44:37.145Z,6.33
2022-07-26T02:47:03.742Z,5.53
2022-07-26T02:49:30.256Z,6.00
2022-07-26T02:51:57.436Z,6.37
2022-07-26T02:54:24.210Z,5.45
2022-07-26T02:56:50.731Z,5.47
2022-07-26T02:59:17.238Z,5.87
2022-07-26T03:01:43.823Z,4.90
2022-07-26T03:04:10.966Z,4.97
2022-07-26T03:06:37.972Z,5.37
2022-07-26T03:09:04.690Z,6.30
2022-07-26T03:11:31.340Z,5.10
2022-07-26T03:13:57.827Z,5.63
2022-07-26T03:16:29.274Z,5.23
2022-07-26T03:18:56.579Z,5.13
2022-07-26T03:21:23.089Z,5.50
2022-07-26T03:23:49.665Z,4.83
2022-07-26T03:26:16.313Z,4.70
2022-07-26T03:28:44.569Z,4.43
2022-07-26T03:31:11.836Z,5.40
2022-07-26T03:33:38.857Z,5.67
2022-07-26T03:36:05.662Z,4.77
2022-07-26T03:38:38.316Z,5.77
2022-07-26T03:41:05.583Z,5.20
2022-07-26T03:43:32.083Z,4.87
2022-07-26T03:46:03.072Z,4.67
2022-07-26T03:48:30.691Z,4.43
2022-07-26T03:50:57.288Z,4.90
2022-07-26T03:53:23.963Z,4.03
2022-07-26T03:56:09.564Z,4.67
2022-07-26T03:58:36.159Z,5.30
2022-07-26T04:01:04.018Z,5.23
2022-07-26T04:03:30.609Z,5.83
2022-07-26T04:05:57.580Z,5.50
2022-07-26T04:08:24.085Z,5.70
2022-07-26T04:10:53.694Z,4.97
2022-07-26T04:13:20.673Z,4.70
2022-07-26T04:15:47.374Z,4.78
2022-07-26T04:18:14.396Z,5.53
2022-07-26T04:20:41.173Z,4.72
2022-07-26T04:23:10.532Z,4.32
2022-07-26T04:25:41.276Z,5.15
2022-07-26T04:28:08.280Z,5.30
2022-07-26T04:30:34.854Z,5.47
2022-07-26T04:33:01.438Z,5.15
2022-07-26T04:35:27.963Z,5.13
2022-07-26T04:37:54.494Z,4.75
2022-07-26T04:40:21.790Z,4.93
2022-07-26T04:42:51.194Z,4.85
2022-07-26T04:45:18.077Z,4.90
2022-07-26T04:47:45.486Z,6.20
2022-07-26T04:50:15.769Z,5.43
2022-07-26T04:52:42.337Z,4.65
2022-07-26T04:55:09.480Z,5.00
2022-07-26T04:57:36.232Z,5.07
2022-07-26T05:00:20.651Z,4.13
2022-07-26T05:02:49.567Z,3.30
2022-07-26T05:05:16.196Z,4.10
2022-07-26T05:07:44.097Z,2.90
2022-07-26T05:10:10.696Z,3.67
2022-07-26T05:12:37.407Z,4.15
2022-07-26T05:15:04.685Z,3.80
2022-07-26T05:17:31.314Z,3.47
2022-07-26T05:20:03.470Z,4.25
2022-07-26T05:22:30.413Z,4.88
2022-07-26T05:24:56.968Z,5.03
2022-07-26T05:27:23.532Z,5.40
2022-07-26T05:29:50.041Z,5.15
2022-07-26T05:32:16.786Z,4.90
2022-07-26T05:34:43.315Z,4.80
2022-07-26T05:37:09.856Z,4.50
2022-07-26T05:39:36.345Z,5.13
2022-07-26T05:42:02.835Z,6.18
2022-07-26T05:44:29.326Z,5.60
2022-07-26T05:46:56.932Z,4.97
2022-07-26T05:49:23.438Z,5.43
2022-07-26T05:51:49.954Z,5.10
2022-07-26T05:54:16.464Z,4.72
2022-07-26T05:56:49.448Z,5.07
2022-07-26T05:59:15.963Z,5.10
2022-07-26T06:01:42.528Z,5.05
2022-07-26T06:04:10.690Z,4.68
2022-07-26T06:06:37.547Z,4.63
2022-07-26T06:09:04.409Z,4.65
2022-07-26T06:11:30.951Z,4.68
2022-07-26T06:13:57.600Z,4.80
2022-07-26T06:16:24.115Z,5.10
2022-07-26T06:18:50.741Z,5.00
2022-07-26T06:21:17.201Z,4.53
2022-07-26T06:23:43.686Z,5.30
2022-07-26T06:26:10.220Z,5.05
2022-07-26T06:28:38.575Z,5.43
2022-07-26T06:31:05.427Z,4.88
2022-07-26T06:33:31.982Z,4.30
2022-07-26T06:35:58.477Z,4.82
2022-07-26T06:38:25.028Z,5.40
2022-07-26T06:40:51.550Z,5.22
2022-07-26T06:43:18.032Z,4.68
2022-07-26T06:45:44.564Z,5.10
2022-07-26T06:48:11.140Z,5.25
2022-07-26T06:50:37.760Z,4.82
2022-07-26T06:53:04.276Z,5.20
2022-07-26T06:55:30.751Z,4.32
2022-07-26T06:57:57.788Z,4.43
2022-07-26T07:00:24.487Z,4.65
2022-07-26T07:02:51.013Z,4.82
2022-07-26T07:05:17.761Z,4.53
2022-07-26T07:07:44.281Z,4.28
2022-07-26T07:10:11.037Z,4.90
2022-07-26T07:12:40.150Z,4.95
2022-07-26T07:15:06.940Z,4.82
2022-07-26T07:17:33.479Z,4.60
2022-07-26T07:20:00.575Z,4.80
2022-07-26T07:22:27.042Z,4.68
2022-07-26T07:24:53.548Z,4.72
2022-07-26T07:27:20.017Z,4.57
2022-07-26T07:29:47.620Z,4.82
2022-07-26T07:32:18.405Z,3.83
2022-07-26T07:34:47.709Z,4.47
2022-07-26T07:37:14.491Z,4.68
2022-07-26T07:39:40.983Z,4.40
2022-07-26T07:42:08.009Z,4.97
2022-07-26T07:44:34.500Z,4.57
2022-07-26T07:47:01.824Z,4.35
2022-07-26T07:49:28.477Z,4.32
2022-07-26T07:51:55.025Z,4.60
2022-07-26T07:54:22.348Z,4.63
2022-07-26T07:56:49.168Z,4.38
2022-07-26T07:59:15.668Z,4.78
2022-07-26T08:01:42.170Z,4.20
2022-07-26T08:04:11.467Z,4.35
2022-07-26T08:06:38.009Z,3.90
2022-07-26T08:09:07.809Z,3.95
2022-07-26T08:11:34.704Z,3.90
2022-07-26T08:14:01.557Z,5.10
2022-07-26T08:16:28.179Z,4.10
2022-07-26T08:18:57.941Z,3.88
2022-07-26T08:21:26.374Z,4.03
2022-07-26T08:23:54.873Z,4.20
2022-07-26T08:26:21.392Z,4.45
2022-07-26T08:28:48.594Z,4.30
2022-07-26T08:31:20.115Z,3.15
2022-07-26T08:33:47.218Z,3.47
2022-07-26T08:36:17.056Z,3.90
2022-07-26T08:38:44.466Z,3.42
2022-07-26T08:41:11.058Z,4.13
2022-07-26T08:43:51.317Z,4.18
2022-07-26T08:46:24.349Z,4.40
2022-07-26T08:48:52.393Z,4.05
2022-07-26T08:51:20.232Z,3.55
2022-07-26T08:53:47.619Z,3.80
2022-07-26T08:56:14.105Z,4.07
2022-07-26T08:58:40.937Z,3.80
2022-07-26T09:01:08.696Z,3.83
2022-07-26T09:03:38.090Z,3.65
2022-07-26T09:06:11.302Z,3.80
2022-07-26T09:08:37.812Z,3.50
2022-07-26T09:11:24.233Z,3.83
2022-07-26T09:13:52.037Z,3.00
2022-07-26T09:16:19.140Z,3.08
2022-07-26T09:18:45.783Z,3.50
2022-07-26T09:21:28.840Z,3.72
2022-07-26T09:23:55.534Z,3.53
2022-07-26T09:26:23.496Z,3.70
2022-07-26T09:29:03.609Z,3.67
2022-07-26T09:31:30.295Z,3.63
2022-07-26T09:33:56.902Z,3.38
2022-07-26T09:36:23.505Z,3.65
2022-07-26T09:38:51.328Z,3.05
2022-07-26T09:41:20.799Z,3.15
2022-07-26T09:43:53.212Z,3.47
2022-07-26T09:46:20.987Z,3.47
2022-07-26T09:51:37.002Z,3.10
2022-07-26T09:54:03.653Z,3.95
2022-07-26T09:56:46.680Z,3.40
2022-07-26T09:59:15.065Z,3.67
2022-07-26T10:01:42.164Z,4.13
2022-07-26T10:04:09.054Z,3.58
2022-07-26T10:06:35.867Z,3.80
2022-07-26T10:09:02.937Z,3.78
2022-07-26T10:11:32.154Z,3.38
2022-07-26T10:13:59.508Z,3.60
2022-07-26T10:16:33.207Z,4.03
2022-07-26T10:19:02.700Z,4.07
2022-07-26T10:21:30.309Z,4.50
2022-07-26T10:23:58.368Z,3.65
2022-07-26T10:26:34.112Z,3.40
2022-07-26T10:29:19.782Z,3.80
2022-07-26T10:32:01.526Z,3.67
2022-07-26T10:34:31.964Z,3.08
2022-07-26T10:36:59.227Z,3.70
2022-07-26T10:39:25.798Z,3.47
2022-07-26T10:42:02.300Z,4.18
2022-07-26T10:44:42.031Z,3.90
2022-07-26T10:47:08.603Z,3.80
2022-07-26T10:49:36.422Z,3.63
2022-07-26T10:52:10.662Z,3.53
2022-07-26T10:54:55.973Z,3.85
2022-07-26T10:57:26.182Z,4.28
2022-07-26T10:59:56.228Z,2.97
2022-07-26T11:02:24.399Z,3.67
2022-07-26T11:04:58.773Z,3.78
2022-07-26T11:07:25.455Z,4.45
2022-07-26T11:09:55.015Z,3.45
2022-07-26T11:12:24.544Z,3.38
2022-07-26T11:14:51.361Z,3.55
2022-07-26T11:17:24.917Z,3.55
2022-07-26T11:19:51.627Z,4.00
2022-07-26T11:22:18.305Z,4.20
2022-07-26T11:24:45.117Z,3.70
2022-07-26T11:27:11.680Z,3.83
2022-07-26T11:29:40.723Z,3.58
2022-07-26T11:32:18.604Z,4.05
2022-07-26T11:34:46.004Z,3.65
2022-07-26T11:37:13.082Z,4.18
2022-07-26T11:39:39.885Z,4.35
2022-07-26T11:42:10.595Z,4.07
2022-07-26T11:44:37.462Z,3.33
2022-07-26T11:47:14.578Z,4.22
2022-07-26T11:49:59.759Z,3.65
2022-07-26T11:52:33.876Z,4.70
2022-07-26T11:55:00.378Z,4.05
2022-07-26T11:57:31.316Z,3.50
2022-07-26T11:59:58.575Z,4.00
2022-07-26T12:02:25.992Z,4.13
2022-07-26T12:05:11.819Z,3.58
2022-07-26T12:07:38.452Z,3.88
2022-07-26T12:10:05.895Z,4.05
2022-07-26T12:12:32.394Z,4.13
2022-07-26T12:15:07.720Z,3.90
2022-07-26T12:17:35.671Z,4.18
2022-07-26T12:20:11.774Z,4.10
2022-07-26T12:22:38.287Z,4.00
2022-07-26T12:25:05.042Z,3.28
2022-07-26T12:27:32.937Z,4.13
2022-07-26T12:30:02.330Z,4.30
2022-07-26T12:32:33.047Z,3.92
2022-07-26T12:35:00.877Z,3.70
2022-07-26T12:37:39.337Z,4.20
2022-07-26T12:40:13.841Z,4.38
2022-07-26T12:42:41.853Z,4.07
2022-07-26T12:45:09.687Z,3.88
2022-07-26T12:47:36.981Z,3.80
2022-07-26T12:50:04.447Z,3.85
2022-07-26T12:52:31.161Z,3.80
2022-07-26T12:54:57.649Z,3.90
2022-07-26T12:57:24.162Z,3.92
2022-07-26T12:59:50.791Z,4.03
2022-07-26T13:02:18.172Z,4.25
2022-07-26T13:04:45.577Z,3.90
2022-07-26T13:07:12.255Z,3.58
2022-07-26T13:09:38.818Z,4.28
2022-07-26T13:12:05.912Z,3.92
2022-07-26T13:14:36.150Z,4.60
2022-07-26T13:17:03.482Z,4.35
2022-07-26T13:19:30.505Z,3.67
2022-07-26T13:21:57.731Z,4.05
2022-07-26T13:24:25.010Z,4.05
2022-07-26T13:26:51.742Z,4.35
2022-07-26T13:29:18.912Z,3.47
2022-07-26T13:31:45.474Z,4.47
2022-07-26T13:34:12.223Z,3.80
2022-07-26T13:36:39.175Z,3.85
2022-07-26T13:39:05.947Z,3.70
2022-07-26T13:41:32.465Z,4.17
2022-07-26T13:44:02.444Z,4.25
2022-07-26T13:46:33.656Z,4.50
2022-07-26T13:49:01.843Z,4.03
2022-07-26T13:51:48.131Z,4.43
2022-07-26T13:54:15.474Z,4.90
2022-07-26T13:56:42.493Z,3.83
2022-07-26T13:59:09.469Z,3.80
2022-07-26T14:01:43.458Z,4.25
2022-07-26T14:04:13.034Z,3.92
2022-07-26T14:06:40.306Z,4.47
2022-07-26T14:09:10.619Z,4.10
2022-07-26T14:11:37.942Z,4.18
2022-07-26T14:14:04.538Z,4.45
2022-07-26T14:16:31.264Z,4.05
2022-07-26T14:18:58.375Z,4.05
2022-07-26T14:21:25.600Z,4.35
2022-07-26T14:23:52.537Z,3.65
2022-07-26T14:26:19.371Z,4.50
2022-07-26T14:28:46.388Z,4.38
2022-07-26T14:31:12.952Z,4.50
2022-07-26T14:33:39.495Z,4.88
2022-07-26T14:36:06.486Z,4.57
2022-07-26T14:38:33.017Z,3.90
2022-07-26T14:41:01.126Z,4.75
2022-07-26T14:43:27.666Z,5.15
2022-07-26T14:45:54.292Z,4.50
2022-07-26T14:48:44.256Z,4.50
2022-07-26T14:51:09.655Z,4.30
2022-07-26T14:53:36.663Z,3.88
2022-07-26T14:56:03.215Z,4.30
2022-07-26T14:58:29.698Z,4.80
2022-07-26T15:00:57.530Z,4.00
2022-07-26T15:03:24.073Z,4.80
2022-07-26T15:05:50.716Z,4.82
2022-07-26T15:08:17.212Z,4.57
2022-07-26T15:10:43.817Z,4.53
2022-07-26T15:13:10.419Z,4.22
2022-07-26T15:15:36.913Z,4.47
2022-07-26T15:18:03.497Z,4.43
2022-07-26T15:20:29.988Z,5.05
2022-07-26T15:22:56.512Z,4.88
2022-07-26T15:25:23.751Z,4.43
2022-07-26T15:27:50.656Z,4.72
2022-07-26T15:30:17.168Z,4.40
2022-07-26T15:32:55.480Z,4.82
2022-07-26T15:35:22.090Z,4.20
2022-07-26T15:37:48.664Z,4.55
2022-07-26T15:40:15.212Z,4.90
2022-07-26T15:42:44.297Z,4.43
2022-07-26T15:45:12.876Z,4.15
2022-07-26T15:48:01.307Z,4.32
2022-07-26T15:50:26.945Z,4.43
2022-07-26T15:52:53.468Z,4.40
2022-07-26T15:55:21.457Z,4.03
2022-07-26T15:57:48.042Z,4.45
2022-07-26T16:00:15.439Z,4.35
2022-07-26T16:02:42.172Z,4.38
2022-07-26T16:05:09.200Z,4.55
2022-07-26T16:07:35.761Z,4.43
2022-07-26T16:10:02.235Z,4.28
2022-07-26T16:12:29.259Z,4.28
2022-07-26T16:14:55.754Z,4.70
2022-07-26T16:17:22.253Z,4.85
2022-07-26T16:19:48.889Z,4.28
2022-07-26T16:22:16.502Z,4.63
2022-07-26T16:24:42.980Z,4.85
2022-07-26T16:27:09.451Z,4.95
2022-07-26T16:29:35.922Z,4.47
2022-07-26T16:32:02.524Z,5.95
2022-07-26T16:34:30.210Z,4.45
2022-07-26T16:36:56.733Z,4.75
2022-07-26T16:39:23.209Z,4.45
2022-07-26T16:41:49.695Z,4.65
2022-07-26T16:44:16.184Z,5.07
2022-07-26T16:46:42.801Z,4.50
2022-07-26T16:49:11.567Z,4.55
2022-07-26T16:51:38.599Z,4.90
2022-07-26T16:54:05.202Z,4.78
2022-07-26T16:56:31.748Z,4.68
2022-07-26T16:58:58.377Z,4.55
2022-07-26T17:01:24.906Z,5.20
2022-07-26T17:03:51.532Z,4.30
2022-07-26T17:06:18.081Z,5.00
2022-07-26T17:08:44.635Z,5.30
2022-07-26T17:11:11.122Z,5.28
2022-07-26T17:13:37.630Z,6.13
2022-07-26T17:16:04.231Z,5.40
2022-07-26T17:18:30.849Z,5.45
2022-07-26T17:20:58.194Z,5.25
2022-07-26T17:23:27.371Z,4.80
2022-07-26T17:25:53.860Z,5.07
2022-07-26T17:28:20.388Z,5.03
2022-07-26T17:30:46.886Z,4.68
2022-07-26T17:33:13.428Z,5.35
2022-07-26T17:35:40.008Z,5.35
2022-07-26T17:38:06.556Z,5.20
2022-07-26T17:40:34.289Z,5.32
2022-07-26T17:43:00.860Z,5.25
2022-07-26T17:45:27.591Z,5.05
2022-07-26T17:47:54.229Z,5.28
2022-07-26T17:50:37.791Z,6.45
2022-07-26T17:53:04.898Z,5.68
2022-07-26T17:55:31.527Z,5.28
2022-07-26T17:57:58.010Z,5.13
2022-07-26T18:00:26.279Z,5.30
2022-07-26T18:02:55.977Z,5.22
2022-07-26T18:05:22.532Z,5.18
2022-07-26T18:07:49.198Z,5.72
2022-07-26T18:10:15.773Z,4.93
2022-07-26T18:12:42.526Z,5.53
2022-07-26T18:15:09.264Z,5.80
2022-07-26T18:17:36.385Z,5.05
2022-07-26T18:20:03.460Z,5.43
2022-07-26T18:22:29.959Z,5.05
2022-07-26T18:24:56.482Z,5.45
2022-07-26T18:27:23.523Z,5.50
2022-07-26T18:29:50.155Z,5.32
2022-07-26T18:32:16.869Z,6.10
2022-07-26T18:34:45.092Z,5.80
2022-07-26T18:37:19.035Z,5.88
2022-07-26T18:39:45.558Z,6.00
2022-07-26T18:42:12.100Z,5.75
2022-07-26T18:44:38.877Z,5.60
2022-07-26T18:47:06.492Z,5.70
2022-07-26T18:49:33.684Z,5.80
2022-07-26T18:52:08.241Z,5.80
2022-07-26T18:54:35.516Z,9.55
2022-07-26T18:57:02.104Z,5.60
2022-07-26T18:59:29.816Z,5.90
2022-07-26T19:01:57.860Z,5.82
2022-07-26T19:04:24.811Z,5.38
2022-07-26T19:06:51.542Z,5.32
2022-07-26T19:09:19.118Z,4.60
2022-07-26T19:11:45.919Z,6.07
2022-07-26T19:14:12.551Z,5.22
2022-07-26T19:16:39.140Z,5.75
2022-07-26T19:19:05.667Z,6.40
2022-07-26T19:21:33.623Z,5.07
2022-07-26T19:24:00.201Z,5.57
2022-07-26T19:26:27.562Z,5.35
2022-07-26T19:28:54.254Z,6.05
2022-07-26T19:31:21.672Z,5.13
2022-07-26T19:33:48.228Z,4.50
2022-07-26T19:36:22.551Z,4.60
2022-07-26T19:38:52.824Z,5.10
2022-07-26T19:41:21.957Z,4.32
2022-07-26T19:43:48.446Z,5.03
2022-07-26T19:46:15.001Z,4.43
2022-07-26T19:48:41.626Z,4.30
2022-07-26T19:51:08.212Z,4.50
2022-07-26T19:53:34.717Z,4.18
2022-07-26T19:56:01.487Z,4.00
2022-07-26T19:58:29.230Z,3.55
2022-07-26T20:00:55.880Z,3.67
2022-07-26T20:03:22.395Z,4.10
2022-07-26T20:05:48.922Z,3.90
2022-07-26T20:08:15.447Z,3.50
2022-07-26T20:10:41.935Z,4.05
2022-07-26T20:13:08.553Z,4.38
2022-07-26T20:15:35.118Z,3.72
2022-07-26T20:18:01.651Z,3.55
2022-07-26T20:20:28.178Z,3.55
2022-07-26T20:22:54.750Z,3.80
2022-07-26T20:25:22.035Z,3.72
2022-07-26T20:27:51.377Z,3.50
2022-07-26T20:30:18.348Z,4.50
2022-07-26T20:32:44.867Z,3.60
2022-07-26T20:35:11.469Z,5.80
2022-07-26T20:37:38.018Z,3.72
2022-07-26T20:40:04.787Z,4.72
2022-07-26T20:42:33.639Z,4.15
2022-07-26T20:45:01.089Z,3.45
2022-07-26T20:47:27.580Z,4.55
2022-07-26T20:49:54.101Z,4.15
2022-07-26T20:52:25.674Z,3.97
2022-07-26T20:54:52.241Z,3.35
2022-07-26T20:57:18.826Z,3.65
2022-07-26T20:59:45.337Z,3.47
2022-07-26T21:02:11.872Z,3.55
2022-07-26T21:04:38.458Z,3.80
2022-07-26T21:07:04.962Z,4.00
2022-07-26T21:09:31.540Z,3.58
2022-07-26T21:11:58.036Z,2.97
2022-07-26T21:14:24.532Z,3.85
2022-07-26T21:16:51.075Z,3.35
2022-07-26T21:19:17.707Z,3.22
2022-07-26T21:21:44.230Z,3.33
2022-07-26T21:24:10.741Z,3.67
2022-07-26T21:26:46.496Z,3.38
2022-07-26T21:29:13.475Z,3.42
2022-07-26T21:31:40.273Z,3.63
2022-07-26T21:34:06.864Z,3.65
2022-07-26T21:36:33.402Z,3.38
2022-07-26T21:38:59.883Z,3.42
2022-07-26T21:41:26.351Z,3.22
2022-07-26T21:43:52.827Z,3.63
2022-07-26T21:46:19.302Z,3.03
2022-07-26T21:48:45.865Z,3.28
2022-07-26T21:51:12.380Z,3.10
2022-07-26T21:53:38.865Z,3.30
2022-07-26T21:56:05.736Z,3.15
2022-07-26T21:58:36.360Z,3.22
2022-07-26T22:01:06.817Z,3.40
2022-07-26T22:03:34.734Z,3.13
2022-07-26T22:06:01.293Z,3.70
2022-07-26T22:08:27.822Z,3.25
2022-07-26T22:10:54.523Z,3.22
2022-07-26T22:13:21.001Z,3.30
2022-07-26T22:15:47.579Z,3.17
2022-07-26T22:18:14.124Z,3.50
2022-07-26T22:20:40.937Z,3.65
2022-07-26T22:23:09.312Z,3.88
2022-07-26T22:25:37.145Z,3.67
2022-07-26T22:28:04.764Z,3.72
2022-07-26T22:30:31.253Z,3.47
2022-07-26T22:32:58.618Z,3.59
2022-07-26T22:35:26.037Z,3.83
2022-07-26T22:38:01.236Z,3.85
2022-07-26T22:40:27.756Z,3.88
2022-07-26T22:42:54.318Z,4.10
2022-07-26T22:45:20.821Z,3.75
2022-07-26T22:47:55.747Z,3.90
2022-07-26T22:50:23.542Z,3.10
2022-07-26T22:52:51.425Z,3.40
2022-07-26T22:55:17.928Z,3.75
2022-07-26T22:57:44.734Z,3.65
2022-07-26T23:00:12.220Z,3.90
2022-07-26T23:02:38.824Z,3.90
2022-07-26T23:05:05.822Z,3.85
2022-07-26T23:07:33.579Z,3.33
2022-07-26T23:10:01.569Z,3.75
2022-07-26T23:12:28.235Z,3.78
2022-07-26T23:14:54.936Z,3.65
2022-07-26T23:17:21.426Z,3.33
2022-07-26T23:19:47.943Z,3.35
2022-07-26T23:22:14.813Z,4.07
2022-07-26T23:24:41.393Z,3.72
2022-07-26T23:27:10.296Z,3.67
2022-07-26T23:29:36.869Z,3.80
2022-07-26T23:32:03.478Z,3.92
2022-07-26T23:34:37.789Z,3.27
2022-07-26T23:37:04.332Z,3.28
2022-07-26T23:39:30.801Z,3.65
2022-07-26T23:41:57.374Z,3.33
2022-07-26T23:44:23.841Z,3.53
2022-07-26T23:46:50.399Z,4.15
2022-07-26T23:49:17.263Z,4.20
2022-07-26T23:51:44.051Z,3.45
2022-07-26T23:54:10.591Z,3.78
2022-07-26T23:56:37.117Z,3.72
2022-07-26T23:59:03.618Z,3.72
